sensor_id;sensor_type;location;lat;lon;timestamp;P1;durP1;ratioP1;P2;durP2;ratioP2
63320;SDS011;49449;48.800;9.534;2024-01-27T00:00:37;9.63;;;3.08;;
63320;SDS011;49449;48.800;9.534;2024-01-27T00:03:05;5.57;;;2.85;;
63320;SDS011;49449;48.800;9.534;2024-01-27T00:05:35;3.47;;;2.45;;
63320;SDS011;49449;48.800;9.534;2024-01-27T00:08:08;3.50;;;2.50;;
63320;SDS011;49449;48.800;9.534;2024-01-27T00:10:36;4.85;;;3.53;;
63320;SDS011;49449;48.800;9.534;2024-01-27T00:13:09;5.70;;;2.90;;
63320;SDS011;49449;48.800;9.534;2024-01-27T00:15:43;4.07;;;2.63;;
63320;SDS011;49449;48.800;9.534;2024-01-27T00:18:16;3.00;;;2.60;;
63320;SDS011;49449;48.800;9.534;2024-01-27T00:20:44;3.50;;;2.90;;
63320;SDS011;49449;48.800;9.534;2024-01-27T00:23:12;3.90;;;2.67;;
63320;SDS011;49449;48.800;9.534;2024-01-27T00:25:41;3.50;;;2.42;;
63320;SDS011;49449;48.800;9.534;2024-01-27T00:28:09;4.38;;;2.65;;
63320;SDS011;49449;48.800;9.534;2024-01-27T00:30:36;4.03;;;3.13;;
63320;SDS011;49449;48.800;9.534;2024-01-27T00:33:08;4.07;;;2.80;;
63320;SDS011;49449;48.800;9.534;2024-01-27T00:35:36;4.88;;;2.58;;
63320;SDS011;49449;48.800;9.534;2024-01-27T00:38:06;3.67;;;2.42;;
63320;SDS011;49449;48.800;9.534;2024-01-27T00:40:34;3.35;;;3.05;;
63320;SDS011;49449;48.800;9.534;2024-01-27T00:43:02;4.32;;;2.42;;
63320;SDS011;49449;48.800;9.534;2024-01-27T00:45:30;4.75;;;2.60;;
63320;SDS011;49449;48.800;9.534;2024-01-27T00:47:58;3.35;;;2.50;;
63320;SDS011;49449;48.800;9.534;2024-01-27T00:50:29;5.93;;;2.50;;
63320;SDS011;49449;48.800;9.534;2024-01-27T00:52:57;3.88;;;2.45;;
63320;SDS011;49449;48.800;9.534;2024-01-27T00:55:27;4.40;;;3.13;;
63320;SDS011;49449;48.800;9.534;2024-01-27T00:57:55;3.88;;;2.42;;
63320;SDS011;49449;48.800;9.534;2024-01-27T01:00:23;3.03;;;2.20;;
63320;SDS011;49449;48.800;9.534;2024-01-27T01:02:51;5.28;;;2.60;;
63320;SDS011;49449;48.800;9.534;2024-01-27T01:05:21;3.80;;;2.47;;
63320;SDS011;49449;48.800;9.534;2024-01-27T01:07:50;2.83;;;2.60;;
63320;SDS011;49449;48.800;9.534;2024-01-27T01:10:24;3.53;;;2.55;;
63320;SDS011;49449;48.800;9.534;2024-01-27T01:12:52;3.50;;;2.53;;
63320;SDS011;49449;48.800;9.534;2024-01-27T01:15:20;3.35;;;2.28;;
63320;SDS011;49449;48.800;9.534;2024-01-27T01:17:48;2.95;;;2.58;;
63320;SDS011;49449;48.800;9.534;2024-01-27T01:20:18;3.53;;;2.47;;
63320;SDS011;49449;48.800;9.534;2024-01-27T01:22:46;4.93;;;2.75;;
63320;SDS011;49449;48.800;9.534;2024-01-27T01:25:15;3.88;;;2.92;;
63320;SDS011;49449;48.800;9.534;2024-01-27T01:27:43;5.05;;;3.10;;
63320;SDS011;49449;48.800;9.534;2024-01-27T01:30:10;4.32;;;2.90;;
63320;SDS011;49449;48.800;9.534;2024-01-27T01:32:39;4.30;;;3.75;;
63320;SDS011;49449;48.800;9.534;2024-01-27T01:35:06;4.18;;;3.28;;
63320;SDS011;49449;48.800;9.534;2024-01-27T01:37:34;5.40;;;3.22;;
63320;SDS011;49449;48.800;9.534;2024-01-27T01:40:01;4.15;;;3.75;;
63320;SDS011;49449;48.800;9.534;2024-01-27T01:42:33;5.05;;;3.58;;
63320;SDS011;49449;48.800;9.534;2024-01-27T01:45:01;3.83;;;3.47;;
63320;SDS011;49449;48.800;9.534;2024-01-27T01:47:29;4.53;;;3.20;;
63320;SDS011;49449;48.800;9.534;2024-01-27T01:50:00;4.43;;;3.47;;
63320;SDS011;49449;48.800;9.534;2024-01-27T01:52:28;3.80;;;3.50;;
63320;SDS011;49449;48.800;9.534;2024-01-27T01:54:56;4.10;;;3.20;;
63320;SDS011;49449;48.800;9.534;2024-01-27T01:57:24;3.50;;;3.08;;
63320;SDS011;49449;48.800;9.534;2024-01-27T01:59:53;3.97;;;3.50;;
63320;SDS011;49449;48.800;9.534;2024-01-27T02:02:21;3.90;;;3.40;;
63320;SDS011;49449;48.800;9.534;2024-01-27T02:04:49;3.53;;;2.97;;
63320;SDS011;49449;48.800;9.534;2024-01-27T02:07:16;3.67;;;3.28;;
63320;SDS011;49449;48.800;9.534;2024-01-27T02:09:44;4.20;;;3.53;;
63320;SDS011;49449;48.800;9.534;2024-01-27T02:12:12;4.97;;;3.80;;
63320;SDS011;49449;48.800;9.534;2024-01-27T02:14:40;4.20;;;3.42;;
63320;SDS011;49449;48.800;9.534;2024-01-27T02:17:12;4.70;;;3.60;;
63320;SDS011;49449;48.800;9.534;2024-01-27T02:19:40;3.85;;;3.22;;
63320;SDS011;49449;48.800;9.534;2024-01-27T02:22:07;4.45;;;3.63;;
63320;SDS011;49449;48.800;9.534;2024-01-27T02:24:36;4.40;;;3.38;;
63320;SDS011;49449;48.800;9.534;2024-01-27T02:27:04;4.95;;;3.40;;
63320;SDS011;49449;48.800;9.534;2024-01-27T02:29:32;5.85;;;3.20;;
63320;SDS011;49449;48.800;9.534;2024-01-27T02:32:00;6.70;;;4.10;;
63320;SDS011;49449;48.800;9.534;2024-01-27T02:34:28;7.20;;;3.75;;
63320;SDS011;49449;48.800;9.534;2024-01-27T02:36:55;6.25;;;3.75;;
63320;SDS011;49449;48.800;9.534;2024-01-27T02:39:23;4.47;;;3.40;;
63320;SDS011;49449;48.800;9.534;2024-01-27T02:41:52;5.00;;;3.20;;
63320;SDS011;49449;48.800;9.534;2024-01-27T02:44:20;5.25;;;3.70;;
63320;SDS011;49449;48.800;9.534;2024-01-27T02:46:48;5.47;;;3.15;;
63320;SDS011;49449;48.800;9.534;2024-01-27T02:49:16;5.70;;;3.80;;
63320;SDS011;49449;48.800;9.534;2024-01-27T02:51:44;5.28;;;3.65;;
63320;SDS011;49449;48.800;9.534;2024-01-27T02:54:11;6.00;;;3.92;;
63320;SDS011;49449;48.800;9.534;2024-01-27T02:56:39;8.07;;;4.05;;
63320;SDS011;49449;48.800;9.534;2024-01-27T02:59:08;6.65;;;4.00;;
63320;SDS011;49449;48.800;9.534;2024-01-27T03:01:38;5.00;;;3.53;;
63320;SDS011;49449;48.800;9.534;2024-01-27T03:04:06;5.50;;;3.97;;
63320;SDS011;49449;48.800;9.534;2024-01-27T03:06:34;7.50;;;3.58;;
63320;SDS011;49449;48.800;9.534;2024-01-27T03:09:01;6.07;;;3.83;;
63320;SDS011;49449;48.800;9.534;2024-01-27T03:11:29;4.75;;;3.35;;
63320;SDS011;49449;48.800;9.534;2024-01-27T03:13:57;4.38;;;3.30;;
63320;SDS011;49449;48.800;9.534;2024-01-27T03:16:26;4.50;;;3.97;;
63320;SDS011;49449;48.800;9.534;2024-01-27T03:18:54;5.40;;;3.30;;
63320;SDS011;49449;48.800;9.534;2024-01-27T03:21:22;3.85;;;3.10;;
63320;SDS011;49449;48.800;9.534;2024-01-27T03:23:50;4.68;;;3.30;;
63320;SDS011;49449;48.800;9.534;2024-01-27T03:26:17;4.82;;;3.83;;
63320;SDS011;49449;48.800;9.534;2024-01-27T03:28:45;3.63;;;3.33;;
63320;SDS011;49449;48.800;9.534;2024-01-27T03:31:13;5.90;;;3.08;;
63320;SDS011;49449;48.800;9.534;2024-01-27T03:33:42;6.57;;;3.03;;
63320;SDS011;49449;48.800;9.534;2024-01-27T03:36:12;4.78;;;3.10;;
63320;SDS011;49449;48.800;9.534;2024-01-27T03:38:41;3.67;;;3.17;;
63320;SDS011;49449;48.800;9.534;2024-01-27T03:41:08;4.05;;;3.25;;
63320;SDS011;49449;48.800;9.534;2024-01-27T03:43:36;4.35;;;3.20;;
63320;SDS011;49449;48.800;9.534;2024-01-27T03:46:04;3.40;;;3.10;;
63320;SDS011;49449;48.800;9.534;2024-01-27T03:48:32;3.40;;;3.10;;
63320;SDS011;49449;48.800;9.534;2024-01-27T03:51:02;5.47;;;3.72;;
63320;SDS011;49449;48.800;9.534;2024-01-27T03:53:30;3.22;;;2.92;;
63320;SDS011;49449;48.800;9.534;2024-01-27T03:55:58;3.50;;;3.00;;
63320;SDS011;49449;48.800;9.534;2024-01-27T03:58:28;4.18;;;3.30;;
63320;SDS011;49449;48.800;9.534;2024-01-27T04:00:56;6.25;;;3.17;;
63320;SDS011;49449;48.800;9.534;2024-01-27T04:03:24;3.28;;;2.95;;
63320;SDS011;49449;48.800;9.534;2024-01-27T04:05:52;3.20;;;2.92;;
63320;SDS011;49449;48.800;9.534;2024-01-27T04:08:21;3.80;;;2.95;;
63320;SDS011;49449;48.800;9.534;2024-01-27T04:10:49;5.03;;;3.00;;
63320;SDS011;49449;48.800;9.534;2024-01-27T04:13:20;3.03;;;2.75;;
63320;SDS011;49449;48.800;9.534;2024-01-27T04:15:48;3.95;;;3.17;;
63320;SDS011;49449;48.800;9.534;2024-01-27T04:18:20;2.83;;;2.53;;
63320;SDS011;49449;48.800;9.534;2024-01-27T04:20:48;3.70;;;3.10;;
63320;SDS011;49449;48.800;9.534;2024-01-27T04:23:15;3.92;;;3.63;;
63320;SDS011;49449;48.800;9.534;2024-01-27T04:25:44;3.15;;;2.85;;
63320;SDS011;49449;48.800;9.534;2024-01-27T04:28:12;3.50;;;2.78;;
63320;SDS011;49449;48.800;9.534;2024-01-27T04:30:42;4.72;;;4.28;;
63320;SDS011;49449;48.800;9.534;2024-01-27T04:33:11;3.33;;;3.03;;
63320;SDS011;49449;48.800;9.534;2024-01-27T04:35:39;4.32;;;3.13;;
63320;SDS011;49449;48.800;9.534;2024-01-27T04:38:07;5.25;;;3.67;;
63320;SDS011;49449;48.800;9.534;2024-01-27T04:40:35;3.40;;;2.70;;
63320;SDS011;49449;48.800;9.534;2024-01-27T04:43:05;3.63;;;3.33;;
63320;SDS011;49449;48.800;9.534;2024-01-27T04:45:32;2.83;;;2.55;;
63320;SDS011;49449;48.800;9.534;2024-01-27T04:48:00;2.97;;;2.67;;
63320;SDS011;49449;48.800;9.534;2024-01-27T04:50:31;3.42;;;3.10;;
63320;SDS011;49449;48.800;9.534;2024-01-27T04:52:59;3.08;;;2.70;;
63320;SDS011;49449;48.800;9.534;2024-01-27T04:55:27;5.05;;;2.97;;
63320;SDS011;49449;48.800;9.534;2024-01-27T04:57:55;2.70;;;2.50;;
63320;SDS011;49449;48.800;9.534;2024-01-27T05:00:26;2.65;;;2.42;;
63320;SDS011;49449;48.800;9.534;2024-01-27T05:02:54;2.50;;;2.30;;
63320;SDS011;49449;48.800;9.534;2024-01-27T05:05:23;2.53;;;2.33;;
63320;SDS011;49449;48.800;9.534;2024-01-27T05:07:52;3.97;;;2.58;;
63320;SDS011;49449;48.800;9.534;2024-01-27T05:10:20;4.57;;;2.65;;
63320;SDS011;49449;48.800;9.534;2024-01-27T05:12:48;2.55;;;2.35;;
63320;SDS011;49449;48.800;9.534;2024-01-27T05:15:16;4.85;;;2.35;;
63320;SDS011;49449;48.800;9.534;2024-01-27T05:17:45;2.35;;;2.15;;
63320;SDS011;49449;48.800;9.534;2024-01-27T05:20:13;2.50;;;2.15;;
63320;SDS011;49449;48.800;9.534;2024-01-27T05:22:41;3.35;;;2.80;;
63320;SDS011;49449;48.800;9.534;2024-01-27T05:25:08;4.25;;;2.85;;
63320;SDS011;49449;48.800;9.534;2024-01-27T05:27:37;2.47;;;2.28;;
63320;SDS011;49449;48.800;9.534;2024-01-27T05:30:05;2.70;;;2.50;;
63320;SDS011;49449;48.800;9.534;2024-01-27T05:32:34;2.58;;;2.28;;
63320;SDS011;49449;48.800;9.534;2024-01-27T05:35:03;2.40;;;2.20;;
63320;SDS011;49449;48.800;9.534;2024-01-27T05:37:31;2.88;;;2.40;;
63320;SDS011;49449;48.800;9.534;2024-01-27T05:39:59;3.17;;;2.50;;
63320;SDS011;49449;48.800;9.534;2024-01-27T05:42:27;2.58;;;2.38;;
63320;SDS011;49449;48.800;9.534;2024-01-27T05:44:55;3.35;;;2.92;;
63320;SDS011;49449;48.800;9.534;2024-01-27T05:47:22;3.13;;;2.83;;
63320;SDS011;49449;48.800;9.534;2024-01-27T05:49:50;3.38;;;3.17;;
63320;SDS011;49449;48.800;9.534;2024-01-27T05:52:21;3.75;;;3.45;;
63320;SDS011;49449;48.800;9.534;2024-01-27T05:54:51;3.15;;;2.70;;
63320;SDS011;49449;48.800;9.534;2024-01-27T05:57:19;3.17;;;2.90;;
63320;SDS011;49449;48.800;9.534;2024-01-27T05:59:47;5.78;;;3.55;;
63320;SDS011;49449;48.800;9.534;2024-01-27T06:02:15;5.55;;;3.08;;
63320;SDS011;49449;48.800;9.534;2024-01-27T06:04:44;4.50;;;3.15;;
63320;SDS011;49449;48.800;9.534;2024-01-27T06:07:12;3.97;;;3.20;;
63320;SDS011;49449;48.800;9.534;2024-01-27T06:09:42;4.30;;;3.20;;
63320;SDS011;49449;48.800;9.534;2024-01-27T06:12:09;5.13;;;3.30;;
63320;SDS011;49449;48.800;9.534;2024-01-27T06:14:37;5.88;;;3.38;;
63320;SDS011;49449;48.800;9.534;2024-01-27T06:17:05;5.75;;;3.80;;
63320;SDS011;49449;48.800;9.534;2024-01-27T06:19:33;4.35;;;3.40;;
63320;SDS011;49449;48.800;9.534;2024-01-27T06:22:01;5.75;;;2.95;;
63320;SDS011;49449;48.800;9.534;2024-01-27T06:24:30;4.57;;;4.07;;
63320;SDS011;49449;48.800;9.534;2024-01-27T06:26:59;4.78;;;3.30;;
63320;SDS011;49449;48.800;9.534;2024-01-27T06:29:27;3.05;;;2.80;;
63320;SDS011;49449;48.800;9.534;2024-01-27T06:31:55;2.72;;;2.53;;
63320;SDS011;49449;48.800;9.534;2024-01-27T06:34:23;3.20;;;2.90;;
63320;SDS011;49449;48.800;9.534;2024-01-27T06:36:51;2.95;;;2.65;;
63320;SDS011;49449;48.800;9.534;2024-01-27T06:39:18;2.95;;;2.60;;
63320;SDS011;49449;48.800;9.534;2024-01-27T06:41:47;2.60;;;2.40;;
63320;SDS011;49449;48.800;9.534;2024-01-27T06:44:17;3.80;;;2.53;;
63320;SDS011;49449;48.800;9.534;2024-01-27T06:46:44;3.08;;;2.67;;
63320;SDS011;49449;48.800;9.534;2024-01-27T06:49:16;4.13;;;2.85;;
63320;SDS011;49449;48.800;9.534;2024-01-27T06:51:44;4.57;;;4.18;;
63320;SDS011;49449;48.800;9.534;2024-01-27T06:54:12;4.05;;;3.67;;
63320;SDS011;49449;48.800;9.534;2024-01-27T06:56:39;4.18;;;3.00;;
63320;SDS011;49449;48.800;9.534;2024-01-27T06:59:07;4.20;;;3.33;;
63320;SDS011;49449;48.800;9.534;2024-01-27T07:01:36;3.97;;;3.45;;
63320;SDS011;49449;48.800;9.534;2024-01-27T07:04:04;2.88;;;2.67;;
63320;SDS011;49449;48.800;9.534;2024-01-27T07:06:32;4.05;;;3.08;;
63320;SDS011;49449;48.800;9.534;2024-01-27T07:09:00;3.28;;;2.90;;
63320;SDS011;49449;48.800;9.534;2024-01-27T07:11:28;4.18;;;3.78;;
63320;SDS011;49449;48.800;9.534;2024-01-27T07:13:55;3.13;;;2.70;;
63320;SDS011;49449;48.800;9.534;2024-01-27T07:16:23;9.02;;;6.35;;
63320;SDS011;49449;48.800;9.534;2024-01-27T07:18:52;6.65;;;4.97;;
63320;SDS011;49449;48.800;9.534;2024-01-27T07:21:20;4.10;;;3.70;;
63320;SDS011;49449;48.800;9.534;2024-01-27T07:23:48;3.58;;;3.05;;
63320;SDS011;49449;48.800;9.534;2024-01-27T07:26:18;4.40;;;3.35;;
63320;SDS011;49449;48.800;9.534;2024-01-27T07:28:46;5.03;;;4.53;;
63320;SDS011;49449;48.800;9.534;2024-01-27T07:31:14;3.67;;;3.35;;
63320;SDS011;49449;48.800;9.534;2024-01-27T07:33:43;3.30;;;3.00;;
63320;SDS011;49449;48.800;9.534;2024-01-27T07:36:13;4.82;;;3.40;;
63320;SDS011;49449;48.800;9.534;2024-01-27T07:38:40;4.80;;;4.22;;
63320;SDS011;49449;48.800;9.534;2024-01-27T07:41:09;4.35;;;3.30;;
63320;SDS011;49449;48.800;9.534;2024-01-27T07:43:36;3.67;;;2.60;;
63320;SDS011;49449;48.800;9.534;2024-01-27T07:46:04;3.53;;;2.65;;
63320;SDS011;49449;48.800;9.534;2024-01-27T07:48:32;4.70;;;3.22;;
63320;SDS011;49449;48.800;9.534;2024-01-27T07:51:00;5.15;;;3.95;;
63320;SDS011;49449;48.800;9.534;2024-01-27T07:53:30;7.55;;;4.00;;
63320;SDS011;49449;48.800;9.534;2024-01-27T07:55:57;5.10;;;3.72;;
63320;SDS011;49449;48.800;9.534;2024-01-27T07:58:25;6.00;;;4.03;;
63320;SDS011;49449;48.800;9.534;2024-01-27T08:00:53;9.48;;;3.70;;
63320;SDS011;49449;48.800;9.534;2024-01-27T08:03:21;13.93;;;4.22;;
63320;SDS011;49449;48.800;9.534;2024-01-27T08:05:48;8.38;;;3.97;;
63320;SDS011;49449;48.800;9.534;2024-01-27T08:08:16;5.28;;;4.28;;
63320;SDS011;49449;48.800;9.534;2024-01-27T08:10:48;7.70;;;4.00;;
63320;SDS011;49449;48.800;9.534;2024-01-27T08:13:16;5.63;;;3.97;;
63320;SDS011;49449;48.800;9.534;2024-01-27T08:15:44;5.65;;;4.13;;
63320;SDS011;49449;48.800;9.534;2024-01-27T08:18:12;5.88;;;3.85;;
63320;SDS011;49449;48.800;9.534;2024-01-27T08:20:40;4.35;;;3.42;;
63320;SDS011;49449;48.800;9.534;2024-01-27T08:23:07;6.20;;;3.95;;
63320;SDS011;49449;48.800;9.534;2024-01-27T08:25:35;7.70;;;4.43;;
63320;SDS011;49449;48.800;9.534;2024-01-27T08:28:05;6.15;;;4.65;;
63320;SDS011;49449;48.800;9.534;2024-01-27T08:30:33;5.78;;;3.72;;
63320;SDS011;49449;48.800;9.534;2024-01-27T08:33:01;4.88;;;4.05;;
63320;SDS011;49449;48.800;9.534;2024-01-27T08:35:29;7.35;;;5.25;;
63320;SDS011;49449;48.800;9.534;2024-01-27T08:37:56;4.72;;;3.45;;
63320;SDS011;49449;48.800;9.534;2024-01-27T08:40:24;6.75;;;4.03;;
63320;SDS011;49449;48.800;9.534;2024-01-27T08:42:52;5.15;;;3.70;;
63320;SDS011;49449;48.800;9.534;2024-01-27T08:45:21;5.50;;;4.28;;
63320;SDS011;49449;48.800;9.534;2024-01-27T08:47:50;4.38;;;3.58;;
63320;SDS011;49449;48.800;9.534;2024-01-27T08:50:18;4.95;;;3.58;;
63320;SDS011;49449;48.800;9.534;2024-01-27T08:52:46;4.95;;;3.75;;
63320;SDS011;49449;48.800;9.534;2024-01-27T08:55:14;5.35;;;3.75;;
63320;SDS011;49449;48.800;9.534;2024-01-27T08:57:45;5.03;;;3.80;;
63320;SDS011;49449;48.800;9.534;2024-01-27T09:00:14;6.50;;;4.88;;
63320;SDS011;49449;48.800;9.534;2024-01-27T09:02:44;4.68;;;4.18;;
63320;SDS011;49449;48.800;9.534;2024-01-27T09:05:13;5.40;;;4.88;;
63320;SDS011;49449;48.800;9.534;2024-01-27T09:07:41;6.78;;;4.60;;
63320;SDS011;49449;48.800;9.534;2024-01-27T09:10:11;4.65;;;3.85;;
63320;SDS011;49449;48.800;9.534;2024-01-27T09:12:40;5.18;;;4.50;;
63320;SDS011;49449;48.800;9.534;2024-01-27T09:15:09;5.90;;;4.05;;
63320;SDS011;49449;48.800;9.534;2024-01-27T09:17:37;6.93;;;4.85;;
63320;SDS011;49449;48.800;9.534;2024-01-27T09:20:08;5.85;;;4.28;;
63320;SDS011;49449;48.800;9.534;2024-01-27T09:22:39;8.10;;;4.75;;
63320;SDS011;49449;48.800;9.534;2024-01-27T09:25:08;22.08;;;6.53;;
63320;SDS011;49449;48.800;9.534;2024-01-27T09:27:36;12.23;;;5.63;;
63320;SDS011;49449;48.800;9.534;2024-01-27T09:30:04;7.38;;;5.53;;
63320;SDS011;49449;48.800;9.534;2024-01-27T09:32:33;8.48;;;5.88;;
63320;SDS011;49449;48.800;9.534;2024-01-27T09:35:02;8.88;;;5.30;;
63320;SDS011;49449;48.800;9.534;2024-01-27T09:37:31;7.20;;;5.40;;
63320;SDS011;49449;48.800;9.534;2024-01-27T09:39:59;7.78;;;6.05;;
63320;SDS011;49449;48.800;9.534;2024-01-27T09:42:30;8.73;;;6.05;;
63320;SDS011;49449;48.800;9.534;2024-01-27T09:45:01;8.55;;;4.93;;
63320;SDS011;49449;48.800;9.534;2024-01-27T09:47:30;8.48;;;6.28;;
63320;SDS011;49449;48.800;9.534;2024-01-27T09:50:00;8.00;;;6.57;;
63320;SDS011;49449;48.800;9.534;2024-01-27T09:52:28;9.23;;;6.55;;
63320;SDS011;49449;48.800;9.534;2024-01-27T09:54:57;8.60;;;6.05;;
63320;SDS011;49449;48.800;9.534;2024-01-27T09:57:25;8.38;;;6.70;;
63320;SDS011;49449;48.800;9.534;2024-01-27T09:59:53;8.85;;;6.80;;
63320;SDS011;49449;48.800;9.534;2024-01-27T10:02:21;10.73;;;7.43;;
63320;SDS011;49449;48.800;9.534;2024-01-27T10:04:53;9.70;;;6.95;;
63320;SDS011;49449;48.800;9.534;2024-01-27T10:07:21;7.88;;;6.07;;
63320;SDS011;49449;48.800;9.534;2024-01-27T10:09:50;8.15;;;6.40;;
63320;SDS011;49449;48.800;9.534;2024-01-27T10:12:19;10.25;;;6.47;;
63320;SDS011;49449;48.800;9.534;2024-01-27T10:14:50;7.85;;;6.25;;
63320;SDS011;49449;48.800;9.534;2024-01-27T10:17:20;8.88;;;6.65;;
63320;SDS011;49449;48.800;9.534;2024-01-27T10:19:58;7.75;;;6.32;;
63320;SDS011;49449;48.800;9.534;2024-01-27T10:22:26;8.00;;;6.55;;
63320;SDS011;49449;48.800;9.534;2024-01-27T10:24:54;8.00;;;6.57;;
63320;SDS011;49449;48.800;9.534;2024-01-27T10:27:24;9.57;;;7.03;;
63320;SDS011;49449;48.800;9.534;2024-01-27T10:29:52;8.43;;;7.05;;
63320;SDS011;49449;48.800;9.534;2024-01-27T10:32:20;7.35;;;6.43;;
63320;SDS011;49449;48.800;9.534;2024-01-27T10:34:50;8.35;;;6.65;;
63320;SDS011;49449;48.800;9.534;2024-01-27T10:37:28;8.23;;;6.65;;
63320;SDS011;49449;48.800;9.534;2024-01-27T10:40:02;10.18;;;6.50;;
63320;SDS011;49449;48.800;9.534;2024-01-27T10:45:03;7.50;;;5.68;;
63320;SDS011;49449;48.800;9.534;2024-01-27T10:47:34;7.63;;;6.57;;
63320;SDS011;49449;48.800;9.534;2024-01-27T10:50:04;7.88;;;6.38;;
63320;SDS011;49449;48.800;9.534;2024-01-27T10:52:37;7.78;;;6.22;;
63320;SDS011;49449;48.800;9.534;2024-01-27T10:55:07;7.10;;;6.28;;
63320;SDS011;49449;48.800;9.534;2024-01-27T10:57:38;9.07;;;6.13;;
63320;SDS011;49449;48.800;9.534;2024-01-27T11:00:08;10.25;;;7.53;;
63320;SDS011;49449;48.800;9.534;2024-01-27T11:02:38;10.68;;;7.90;;
63320;SDS011;49449;48.800;9.534;2024-01-27T11:05:08;9.93;;;7.88;;
63320;SDS011;49449;48.800;9.534;2024-01-27T11:07:38;8.48;;;7.30;;
63320;SDS011;49449;48.800;9.534;2024-01-27T11:10:07;9.80;;;6.85;;
63320;SDS011;49449;48.800;9.534;2024-01-27T11:12:35;7.05;;;5.60;;
63320;SDS011;49449;48.800;9.534;2024-01-27T11:15:05;7.43;;;5.90;;
63320;SDS011;49449;48.800;9.534;2024-01-27T11:17:38;6.15;;;5.25;;
63320;SDS011;49449;48.800;9.534;2024-01-27T11:20:06;8.13;;;5.80;;
63320;SDS011;49449;48.800;9.534;2024-01-27T11:22:35;7.07;;;5.32;;
63320;SDS011;49449;48.800;9.534;2024-01-27T11:25:07;8.30;;;5.70;;
63320;SDS011;49449;48.800;9.534;2024-01-27T11:27:35;9.35;;;6.25;;
63320;SDS011;49449;48.800;9.534;2024-01-27T11:30:05;9.60;;;6.28;;
63320;SDS011;49449;48.800;9.534;2024-01-27T11:32:52;9.35;;;6.28;;
63320;SDS011;49449;48.800;9.534;2024-01-27T11:35:20;9.00;;;7.45;;
63320;SDS011;49449;48.800;9.534;2024-01-27T11:37:48;8.48;;;6.40;;
63320;SDS011;49449;48.800;9.534;2024-01-27T11:40:16;7.93;;;5.70;;
63320;SDS011;49449;48.800;9.534;2024-01-27T11:42:53;9.40;;;5.30;;
63320;SDS011;49449;48.800;9.534;2024-01-27T11:45:22;7.38;;;4.68;;
63320;SDS011;49449;48.800;9.534;2024-01-27T11:47:50;8.20;;;4.10;;
63320;SDS011;49449;48.800;9.534;2024-01-27T11:50:18;8.27;;;3.85;;
63320;SDS011;49449;48.800;9.534;2024-01-27T11:52:46;7.35;;;4.15;;
63320;SDS011;49449;48.800;9.534;2024-01-27T11:55:15;6.65;;;3.47;;
63320;SDS011;49449;48.800;9.534;2024-01-27T11:57:45;8.48;;;4.45;;
63320;SDS011;49449;48.800;9.534;2024-01-27T12:00:13;7.47;;;3.47;;
63320;SDS011;49449;48.800;9.534;2024-01-27T12:02:42;5.60;;;3.03;;
63320;SDS011;49449;48.800;9.534;2024-01-27T12:05:10;8.23;;;3.50;;
63320;SDS011;49449;48.800;9.534;2024-01-27T12:07:39;7.68;;;3.53;;
63320;SDS011;49449;48.800;9.534;2024-01-27T12:10:07;4.97;;;3.40;;
63320;SDS011;49449;48.800;9.534;2024-01-27T12:12:36;8.73;;;4.28;;
63320;SDS011;49449;48.800;9.534;2024-01-27T12:15:05;5.18;;;3.30;;
63320;SDS011;49449;48.800;9.534;2024-01-27T12:17:34;6.10;;;3.28;;
63320;SDS011;49449;48.800;9.534;2024-01-27T12:20:05;5.10;;;3.42;;
63320;SDS011;49449;48.800;9.534;2024-01-27T12:22:43;6.07;;;2.70;;
63320;SDS011;49449;48.800;9.534;2024-01-27T12:25:11;5.22;;;2.83;;
63320;SDS011;49449;48.800;9.534;2024-01-27T12:27:41;7.07;;;2.38;;
63320;SDS011;49449;48.800;9.534;2024-01-27T12:30:09;4.32;;;2.08;;
63320;SDS011;49449;48.800;9.534;2024-01-27T12:32:37;6.68;;;3.20;;
63320;SDS011;49449;48.800;9.534;2024-01-27T12:35:07;5.78;;;2.30;;
63320;SDS011;49449;48.800;9.534;2024-01-27T12:37:35;3.92;;;2.00;;
63320;SDS011;49449;48.800;9.534;2024-01-27T12:40:07;2.53;;;1.88;;
63320;SDS011;49449;48.800;9.534;2024-01-27T12:42:46;5.10;;;2.30;;
63320;SDS011;49449;48.800;9.534;2024-01-27T12:45:13;6.13;;;2.38;;
63320;SDS011;49449;48.800;9.534;2024-01-27T12:47:41;2.80;;;2.53;;
63320;SDS011;49449;48.800;9.534;2024-01-27T12:50:10;3.88;;;2.08;;
63320;SDS011;49449;48.800;9.534;2024-01-27T12:52:38;5.30;;;2.20;;
63320;SDS011;49449;48.800;9.534;2024-01-27T12:55:06;5.38;;;2.45;;
63320;SDS011;49449;48.800;9.534;2024-01-27T12:57:35;4.88;;;2.33;;
63320;SDS011;49449;48.800;9.534;2024-01-27T13:00:03;4.72;;;2.30;;
63320;SDS011;49449;48.800;9.534;2024-01-27T13:02:36;6.05;;;2.40;;
63320;SDS011;49449;48.800;9.534;2024-01-27T13:05:04;7.78;;;3.75;;
63320;SDS011;49449;48.800;9.534;2024-01-27T13:07:34;3.92;;;2.30;;
63320;SDS011;49449;48.800;9.534;2024-01-27T13:10:01;5.50;;;2.30;;
63320;SDS011;49449;48.800;9.534;2024-01-27T13:12:30;5.18;;;2.30;;
63320;SDS011;49449;48.800;9.534;2024-01-27T13:14:58;4.95;;;2.38;;
63320;SDS011;49449;48.800;9.534;2024-01-27T13:17:26;4.40;;;2.00;;
63320;SDS011;49449;48.800;9.534;2024-01-27T13:19:54;4.80;;;3.00;;
63320;SDS011;49449;48.800;9.534;2024-01-27T13:22:22;5.07;;;2.70;;
63320;SDS011;49449;48.800;9.534;2024-01-27T13:24:52;5.65;;;2.38;;
63320;SDS011;49449;48.800;9.534;2024-01-27T13:27:21;9.32;;;2.92;;
63320;SDS011;49449;48.800;9.534;2024-01-27T13:29:49;5.45;;;2.78;;
63320;SDS011;49449;48.800;9.534;2024-01-27T13:32:17;4.32;;;2.13;;
63320;SDS011;49449;48.800;9.534;2024-01-27T13:34:45;3.78;;;2.30;;
63320;SDS011;49449;48.800;9.534;2024-01-27T13:37:13;4.57;;;2.00;;
63320;SDS011;49449;48.800;9.534;2024-01-27T13:39:42;7.15;;;2.75;;
63320;SDS011;49449;48.800;9.534;2024-01-27T13:42:11;4.50;;;2.35;;
63320;SDS011;49449;48.800;9.534;2024-01-27T13:44:39;4.00;;;2.15;;
63320;SDS011;49449;48.800;9.534;2024-01-27T13:47:07;2.72;;;2.30;;
63320;SDS011;49449;48.800;9.534;2024-01-27T13:49:36;4.63;;;2.47;;
63320;SDS011;49449;48.800;9.534;2024-01-27T13:52:05;4.45;;;2.70;;
63320;SDS011;49449;48.800;9.534;2024-01-27T13:54:33;5.63;;;3.13;;
63320;SDS011;49449;48.800;9.534;2024-01-27T13:57:01;6.38;;;3.72;;
63320;SDS011;49449;48.800;9.534;2024-01-27T13:59:31;5.28;;;2.67;;
63320;SDS011;49449;48.800;9.534;2024-01-27T14:02:00;5.05;;;2.42;;
63320;SDS011;49449;48.800;9.534;2024-01-27T14:04:30;3.30;;;2.47;;
63320;SDS011;49449;48.800;9.534;2024-01-27T14:06:59;6.10;;;2.97;;
63320;SDS011;49449;48.800;9.534;2024-01-27T14:09:29;5.72;;;2.50;;
63320;SDS011;49449;48.800;9.534;2024-01-27T14:11:57;4.53;;;2.92;;
63320;SDS011;49449;48.800;9.534;2024-01-27T14:14:24;4.35;;;2.28;;
63320;SDS011;49449;48.800;9.534;2024-01-27T14:16:53;4.88;;;2.90;;
63320;SDS011;49449;48.800;9.534;2024-01-27T14:19:21;4.40;;;2.50;;
63320;SDS011;49449;48.800;9.534;2024-01-27T14:21:49;3.63;;;2.42;;
63320;SDS011;49449;48.800;9.534;2024-01-27T14:24:17;4.20;;;2.55;;
63320;SDS011;49449;48.800;9.534;2024-01-27T14:26:45;5.45;;;2.45;;
63320;SDS011;49449;48.800;9.534;2024-01-27T14:29:13;7.28;;;3.10;;
63320;SDS011;49449;48.800;9.534;2024-01-27T14:31:43;3.50;;;2.55;;
63320;SDS011;49449;48.800;9.534;2024-01-27T14:34:12;2.83;;;2.30;;
63320;SDS011;49449;48.800;9.534;2024-01-27T14:36:40;4.13;;;2.80;;
63320;SDS011;49449;48.800;9.534;2024-01-27T14:39:10;5.03;;;2.80;;
63320;SDS011;49449;48.800;9.534;2024-01-27T14:41:39;5.35;;;3.78;;
63320;SDS011;49449;48.800;9.534;2024-01-27T14:44:09;5.43;;;2.75;;
63320;SDS011;49449;48.800;9.534;2024-01-27T14:46:42;4.95;;;2.30;;
63320;SDS011;49449;48.800;9.534;2024-01-27T14:49:13;2.78;;;2.20;;
63320;SDS011;49449;48.800;9.534;2024-01-27T14:51:41;5.45;;;2.97;;
63320;SDS011;49449;48.800;9.534;2024-01-27T14:54:09;4.53;;;2.40;;
63320;SDS011;49449;48.800;9.534;2024-01-27T14:56:37;5.53;;;2.35;;
63320;SDS011;49449;48.800;9.534;2024-01-27T14:59:05;5.35;;;2.70;;